sensor_id;sensor_type;location;lat;lon;timestamp;P1;durP1;ratioP1;P2;durP2;ratioP2
1525;SDS011;756;49.982;8.240;2022-08-19T00:01:24;19.17;;;16.27;;
1525;SDS011;756;49.982;8.240;2022-08-19T00:03:58;17.40;;;15.30;;
1525;SDS011;756;49.982;8.240;2022-08-19T00:06:27;19.30;;;15.80;;
1525;SDS011;756;49.982;8.240;2022-08-19T00:08:56;19.17;;;16.10;;
1525;SDS011;756;49.982;8.240;2022-08-19T00:11:23;16.93;;;15.20;;
1525;SDS011;756;49.982;8.240;2022-08-19T00:13:51;17.40;;;15.57;;
1525;SDS011;756;49.982;8.240;2022-08-19T00:16:22;18.03;;;16.13;;
1525;SDS011;756;49.982;8.240;2022-08-19T00:18:52;19.20;;;16.13;;
1525;SDS011;756;49.982;8.240;2022-08-19T00:21:22;18.60;;;16.63;;
1525;SDS011;756;49.982;8.240;2022-08-19T00:23:50;17.60;;;15.73;;
1525;SDS011;756;49.982;8.240;2022-08-19T00:26:17;20.77;;;16.70;;
1525;SDS011;756;49.982;8.240;2022-08-19T00:28:43;20.47;;;15.80;;
1525;SDS011;756;49.982;8.240;2022-08-19T00:31:10;18.17;;;16.00;;
1525;SDS011;756;49.982;8.240;2022-08-19T00:33:37;22.17;;;15.80;;
1525;SDS011;756;49.982;8.240;2022-08-19T00:36:05;18.07;;;15.80;;
1525;SDS011;756;49.982;8.240;2022-08-19T00:38:34;18.43;;;16.10;;
1525;SDS011;756;49.982;8.240;2022-08-19T00:41:04;20.67;;;16.90;;
1525;SDS011;756;49.982;8.240;2022-08-19T00:43:31;18.17;;;16.27;;
1525;SDS011;756;49.982;8.240;2022-08-19T00:45:58;16.80;;;15.00;;
1525;SDS011;756;49.982;8.240;2022-08-19T00:48:25;20.23;;;18.13;;
1525;SDS011;756;49.982;8.240;2022-08-19T00:50:52;18.67;;;16.57;;
1525;SDS011;756;49.982;8.240;2022-08-19T00:53:22;20.90;;;17.70;;
1525;SDS011;756;49.982;8.240;2022-08-19T00:55:52;17.73;;;15.83;;
1525;SDS011;756;49.982;8.240;2022-08-19T00:58:24;18.83;;;16.83;;
1525;SDS011;756;49.982;8.240;2022-08-19T01:00:53;20.50;;;17.83;;
1525;SDS011;756;49.982;8.240;2022-08-19T01:03:21;19.50;;;16.47;;
1525;SDS011;756;49.982;8.240;2022-08-19T01:05:49;20.20;;;16.93;;
1525;SDS011;756;49.982;8.240;2022-08-19T01:08:18;18.87;;;15.47;;
1525;SDS011;756;49.982;8.240;2022-08-19T01:10:47;20.77;;;16.20;;
1525;SDS011;756;49.982;8.240;2022-08-19T01:13:17;21.30;;;16.97;;
1525;SDS011;756;49.982;8.240;2022-08-19T01:15:55;20.27;;;16.80;;
1525;SDS011;756;49.982;8.240;2022-08-19T01:18:24;21.30;;;16.27;;
1525;SDS011;756;49.982;8.240;2022-08-19T01:20:54;21.90;;;17.30;;
1525;SDS011;756;49.982;8.240;2022-08-19T01:23:24;18.77;;;15.30;;
1525;SDS011;756;49.982;8.240;2022-08-19T01:26:12;19.63;;;16.03;;
1525;SDS011;756;49.982;8.240;2022-08-19T01:28:42;18.40;;;15.43;;
1525;SDS011;756;49.982;8.240;2022-08-19T01:31:16;17.77;;;15.30;;
1525;SDS011;756;49.982;8.240;2022-08-19T01:33:53;18.53;;;16.03;;
1525;SDS011;756;49.982;8.240;2022-08-19T01:39:01;16.50;;;14.70;;
1525;SDS011;756;49.982;8.240;2022-08-19T01:41:32;18.63;;;14.97;;
1525;SDS011;756;49.982;8.240;2022-08-19T01:43:59;17.23;;;15.47;;
1525;SDS011;756;49.982;8.240;2022-08-19T01:46:44;16.77;;;14.40;;
1525;SDS011;756;49.982;8.240;2022-08-19T01:49:11;16.80;;;13.70;;
1525;SDS011;756;49.982;8.240;2022-08-19T01:51:38;15.90;;;14.13;;
1525;SDS011;756;49.982;8.240;2022-08-19T01:54:09;19.87;;;15.30;;
1525;SDS011;756;49.982;8.240;2022-08-19T01:56:48;16.93;;;14.90;;
1525;SDS011;756;49.982;8.240;2022-08-19T01:59:18;17.90;;;15.13;;
1525;SDS011;756;49.982;8.240;2022-08-19T02:01:47;16.03;;;14.33;;
1525;SDS011;756;49.982;8.240;2022-08-19T02:04:14;18.77;;;16.17;;
1525;SDS011;756;49.982;8.240;2022-08-19T02:06:40;18.37;;;15.97;;
1525;SDS011;756;49.982;8.240;2022-08-19T02:09:08;17.17;;;14.23;;
1525;SDS011;756;49.982;8.240;2022-08-19T02:11:36;17.40;;;15.63;;
1525;SDS011;756;49.982;8.240;2022-08-19T02:14:05;18.30;;;15.67;;
1525;SDS011;756;49.982;8.240;2022-08-19T02:16:33;16.97;;;15.17;;
1525;SDS011;756;49.982;8.240;2022-08-19T02:19:01;18.07;;;16.17;;
1525;SDS011;756;49.982;8.240;2022-08-19T02:21:29;17.90;;;16.00;;
1525;SDS011;756;49.982;8.240;2022-08-19T02:23:56;17.47;;;15.57;;
1525;SDS011;756;49.982;8.240;2022-08-19T02:26:23;18.37;;;15.03;;
1525;SDS011;756;49.982;8.240;2022-08-19T02:28:52;16.40;;;14.67;;
1525;SDS011;756;49.982;8.240;2022-08-19T02:31:21;19.40;;;15.43;;
1525;SDS011;756;49.982;8.240;2022-08-19T02:33:50;16.83;;;14.70;;
1525;SDS011;756;49.982;8.240;2022-08-19T02:36:22;16.03;;;14.47;;
1525;SDS011;756;49.982;8.240;2022-08-19T02:38:50;15.97;;;14.30;;
1525;SDS011;756;49.982;8.240;2022-08-19T02:41:24;15.97;;;14.30;;
1525;SDS011;756;49.982;8.240;2022-08-19T02:43:53;14.37;;;12.83;;
1525;SDS011;756;49.982;8.240;2022-08-19T02:46:42;15.20;;;13.60;;
1525;SDS011;756;49.982;8.240;2022-08-19T02:49:11;14.60;;;13.20;;
1525;SDS011;756;49.982;8.240;2022-08-19T02:51:40;16.13;;;14.53;;
1525;SDS011;756;49.982;8.240;2022-08-19T02:54:08;16.60;;;13.07;;
1525;SDS011;756;49.982;8.240;2022-08-19T02:56:37;14.07;;;12.70;;
1525;SDS011;756;49.982;8.240;2022-08-19T02:59:06;13.60;;;12.20;;
1525;SDS011;756;49.982;8.240;2022-08-19T03:01:36;13.13;;;11.87;;
1525;SDS011;756;49.982;8.240;2022-08-19T03:04:05;13.47;;;11.53;;
1525;SDS011;756;49.982;8.240;2022-08-19T03:06:35;14.00;;;12.27;;
1525;SDS011;756;49.982;8.240;2022-08-19T03:09:03;13.77;;;12.40;;
1525;SDS011;756;49.982;8.240;2022-08-19T03:11:31;16.60;;;12.27;;
1525;SDS011;756;49.982;8.240;2022-08-19T03:13:58;13.60;;;12.20;;
1525;SDS011;756;49.982;8.240;2022-08-19T03:16:26;12.23;;;10.93;;
1525;SDS011;756;49.982;8.240;2022-08-19T03:18:59;14.10;;;12.03;;
1525;SDS011;756;49.982;8.240;2022-08-19T03:21:28;14.67;;;13.10;;
1525;SDS011;756;49.982;8.240;2022-08-19T03:23:59;15.07;;;13.53;;
1525;SDS011;756;49.982;8.240;2022-08-19T03:26:28;14.47;;;12.10;;
1525;SDS011;756;49.982;8.240;2022-08-19T03:28:56;13.47;;;12.10;;
1525;SDS011;756;49.982;8.240;2022-08-19T03:31:25;15.57;;;12.63;;
1525;SDS011;756;49.982;8.240;2022-08-19T03:34:15;13.13;;;11.73;;
1525;SDS011;756;49.982;8.240;2022-08-19T03:36:44;12.90;;;11.63;;
1525;SDS011;756;49.982;8.240;2022-08-19T03:39:12;14.83;;;12.70;;
1525;SDS011;756;49.982;8.240;2022-08-19T03:41:40;13.73;;;12.30;;
1525;SDS011;756;49.982;8.240;2022-08-19T03:44:15;14.20;;;12.77;;
1525;SDS011;756;49.982;8.240;2022-08-19T03:46:45;15.67;;;13.70;;
1525;SDS011;756;49.982;8.240;2022-08-19T03:49:13;14.57;;;13.07;;
1525;SDS011;756;49.982;8.240;2022-08-19T03:51:43;15.03;;;13.30;;
1525;SDS011;756;49.982;8.240;2022-08-19T03:54:12;13.93;;;12.43;;
1525;SDS011;756;49.982;8.240;2022-08-19T03:56:41;13.80;;;12.20;;
1525;SDS011;756;49.982;8.240;2022-08-19T03:59:10;14.07;;;12.40;;
1525;SDS011;756;49.982;8.240;2022-08-19T04:01:39;13.60;;;12.10;;
1525;SDS011;756;49.982;8.240;2022-08-19T04:04:06;13.37;;;11.97;;
1525;SDS011;756;49.982;8.240;2022-08-19T04:06:35;14.97;;;12.80;;
1525;SDS011;756;49.982;8.240;2022-08-19T04:09:06;14.07;;;12.30;;
1525;SDS011;756;49.982;8.240;2022-08-19T04:11:40;14.03;;;12.63;;
1525;SDS011;756;49.982;8.240;2022-08-19T04:14:13;13.80;;;12.33;;
1525;SDS011;756;49.982;8.240;2022-08-19T04:16:42;12.47;;;11.17;;
1525;SDS011;756;49.982;8.240;2022-08-19T04:19:11;13.00;;;10.97;;
1525;SDS011;756;49.982;8.240;2022-08-19T04:21:38;13.37;;;11.87;;
1525;SDS011;756;49.982;8.240;2022-08-19T04:24:05;13.67;;;12.20;;
1525;SDS011;756;49.982;8.240;2022-08-19T04:26:34;16.50;;;14.80;;
1525;SDS011;756;49.982;8.240;2022-08-19T04:29:05;14.30;;;12.13;;
1525;SDS011;756;49.982;8.240;2022-08-19T04:31:40;14.43;;;12.80;;
1525;SDS011;756;49.982;8.240;2022-08-19T04:34:09;13.27;;;11.73;;
1525;SDS011;756;49.982;8.240;2022-08-19T04:36:38;14.60;;;13.10;;
1525;SDS011;756;49.982;8.240;2022-08-19T04:39:08;14.17;;;12.77;;
1525;SDS011;756;49.982;8.240;2022-08-19T04:41:38;17.13;;;12.83;;
1525;SDS011;756;49.982;8.240;2022-08-19T04:44:24;14.90;;;11.47;;
1525;SDS011;756;49.982;8.240;2022-08-19T04:46:51;13.37;;;11.97;;
1525;SDS011;756;49.982;8.240;2022-08-19T04:49:19;13.27;;;11.90;;
1525;SDS011;756;49.982;8.240;2022-08-19T04:51:48;15.20;;;11.73;;
1525;SDS011;756;49.982;8.240;2022-08-19T04:54:17;14.40;;;12.47;;
1525;SDS011;756;49.982;8.240;2022-08-19T04:57:05;14.03;;;12.67;;
1525;SDS011;756;49.982;8.240;2022-08-19T04:59:35;14.87;;;13.37;;
1525;SDS011;756;49.982;8.240;2022-08-19T05:02:03;13.40;;;11.97;;
1525;SDS011;756;49.982;8.240;2022-08-19T05:04:30;14.80;;;13.07;;
1525;SDS011;756;49.982;8.240;2022-08-19T05:06:58;14.50;;;12.97;;
1525;SDS011;756;49.982;8.240;2022-08-19T05:09:27;14.23;;;11.83;;
1525;SDS011;756;49.982;8.240;2022-08-19T05:12:15;14.83;;;13.17;;
1525;SDS011;756;49.982;8.240;2022-08-19T05:14:42;15.40;;;12.87;;
1525;SDS011;756;49.982;8.240;2022-08-19T05:17:11;17.33;;;13.70;;
1525;SDS011;756;49.982;8.240;2022-08-19T05:19:58;13.97;;;12.50;;
1525;SDS011;756;49.982;8.240;2022-08-19T05:22:44;15.17;;;12.50;;
1525;SDS011;756;49.982;8.240;2022-08-19T05:25:14;15.17;;;12.97;;
1525;SDS011;756;49.982;8.240;2022-08-19T05:27:44;15.93;;;14.20;;
1525;SDS011;756;49.982;8.240;2022-08-19T05:30:12;14.00;;;12.60;;
1525;SDS011;756;49.982;8.240;2022-08-19T05:32:39;15.77;;;13.80;;
1525;SDS011;756;49.982;8.240;2022-08-19T05:35:06;16.90;;;12.73;;
1525;SDS011;756;49.982;8.240;2022-08-19T05:37:33;17.67;;;13.10;;
1525;SDS011;756;49.982;8.240;2022-08-19T05:40:00;14.50;;;13.00;;
1525;SDS011;756;49.982;8.240;2022-08-19T05:42:27;15.13;;;13.03;;
1525;SDS011;756;49.982;8.240;2022-08-19T05:44:54;19.33;;;13.27;;
1525;SDS011;756;49.982;8.240;2022-08-19T05:47:22;14.97;;;13.27;;
1525;SDS011;756;49.982;8.240;2022-08-19T05:49:49;13.97;;;12.10;;
1525;SDS011;756;49.982;8.240;2022-08-19T05:52:17;14.80;;;12.93;;
1525;SDS011;756;49.982;8.240;2022-08-19T05:54:51;15.67;;;13.67;;
1525;SDS011;756;49.982;8.240;2022-08-19T05:57:21;18.27;;;13.87;;
1525;SDS011;756;49.982;8.240;2022-08-19T05:59:48;15.50;;;12.60;;
1525;SDS011;756;49.982;8.240;2022-08-19T06:02:23;14.90;;;12.67;;
1525;SDS011;756;49.982;8.240;2022-08-19T06:04:49;14.57;;;13.07;;
1525;SDS011;756;49.982;8.240;2022-08-19T06:07:16;15.97;;;12.80;;
1525;SDS011;756;49.982;8.240;2022-08-19T06:09:43;14.90;;;13.43;;
1525;SDS011;756;49.982;8.240;2022-08-19T06:12:30;13.60;;;12.30;;
1525;SDS011;756;49.982;8.240;2022-08-19T06:15:08;13.60;;;11.90;;
1525;SDS011;756;49.982;8.240;2022-08-19T06:17:37;13.83;;;12.43;;
1525;SDS011;756;49.982;8.240;2022-08-19T06:20:04;13.90;;;12.27;;
1525;SDS011;756;49.982;8.240;2022-08-19T06:22:39;15.30;;;13.23;;
1525;SDS011;756;49.982;8.240;2022-08-19T06:25:10;14.33;;;12.27;;
1525;SDS011;756;49.982;8.240;2022-08-19T06:27:38;12.50;;;11.13;;
1525;SDS011;756;49.982;8.240;2022-08-19T06:30:25;15.87;;;13.07;;
1525;SDS011;756;49.982;8.240;2022-08-19T06:32:52;14.80;;;11.93;;
1525;SDS011;756;49.982;8.240;2022-08-19T06:35:19;13.53;;;12.10;;
1525;SDS011;756;49.982;8.240;2022-08-19T06:37:46;18.27;;;12.60;;
1525;SDS011;756;49.982;8.240;2022-08-19T06:40:13;12.30;;;11.10;;
1525;SDS011;756;49.982;8.240;2022-08-19T06:42:40;13.00;;;11.23;;
1525;SDS011;756;49.982;8.240;2022-08-19T06:45:20;12.43;;;11.07;;
1525;SDS011;756;49.982;8.240;2022-08-19T06:47:50;12.13;;;10.90;;
1525;SDS011;756;49.982;8.240;2022-08-19T06:50:20;12.60;;;11.40;;
1525;SDS011;756;49.982;8.240;2022-08-19T06:52:50;12.07;;;10.97;;
1525;SDS011;756;49.982;8.240;2022-08-19T06:55:18;11.70;;;10.50;;
1525;SDS011;756;49.982;8.240;2022-08-19T06:57:45;12.23;;;11.03;;
1525;SDS011;756;49.982;8.240;2022-08-19T07:00:12;12.60;;;11.30;;
1525;SDS011;756;49.982;8.240;2022-08-19T07:02:43;12.07;;;10.80;;
1525;SDS011;756;49.982;8.240;2022-08-19T07:05:20;11.53;;;10.20;;
1525;SDS011;756;49.982;8.240;2022-08-19T07:07:47;11.50;;;10.30;;
1525;SDS011;756;49.982;8.240;2022-08-19T07:10:16;12.93;;;10.03;;
1525;SDS011;756;49.982;8.240;2022-08-19T07:12:43;15.07;;;9.60;;
1525;SDS011;756;49.982;8.240;2022-08-19T07:15:10;11.27;;;9.80;;
1525;SDS011;756;49.982;8.240;2022-08-19T07:17:37;12.33;;;10.70;;
1525;SDS011;756;49.982;8.240;2022-08-19T07:20:07;10.23;;;8.83;;
1525;SDS011;756;49.982;8.240;2022-08-19T07:22:38;9.80;;;8.80;;
1525;SDS011;756;49.982;8.240;2022-08-19T07:25:06;11.23;;;8.80;;
1525;SDS011;756;49.982;8.240;2022-08-19T07:27:35;10.00;;;8.03;;
1525;SDS011;756;49.982;8.240;2022-08-19T07:30:04;10.47;;;8.20;;
1525;SDS011;756;49.982;8.240;2022-08-19T07:32:36;10.43;;;9.13;;
1525;SDS011;756;49.982;8.240;2022-08-19T07:35:03;9.60;;;8.73;;
1525;SDS011;756;49.982;8.240;2022-08-19T07:37:31;8.90;;;7.80;;
1525;SDS011;756;49.982;8.240;2022-08-19T07:39:59;9.20;;;8.30;;
1525;SDS011;756;49.982;8.240;2022-08-19T07:42:27;11.83;;;8.00;;
1525;SDS011;756;49.982;8.240;2022-08-19T07:44:55;10.10;;;9.10;;
1525;SDS011;756;49.982;8.240;2022-08-19T07:47:22;8.70;;;7.87;;
1525;SDS011;756;49.982;8.240;2022-08-19T07:50:09;10.80;;;9.10;;
1525;SDS011;756;49.982;8.240;2022-08-19T07:52:38;11.07;;;9.63;;
1525;SDS011;756;49.982;8.240;2022-08-19T07:55:06;10.50;;;9.20;;
1525;SDS011;756;49.982;8.240;2022-08-19T07:57:54;12.13;;;10.17;;
1525;SDS011;756;49.982;8.240;2022-08-19T08:00:21;11.40;;;8.90;;
1525;SDS011;756;49.982;8.240;2022-08-19T08:02:50;13.00;;;8.27;;
1525;SDS011;756;49.982;8.240;2022-08-19T08:05:21;9.20;;;8.40;;
1525;SDS011;756;49.982;8.240;2022-08-19T08:08:09;10.57;;;8.80;;
1525;SDS011;756;49.982;8.240;2022-08-19T08:10:55;12.03;;;8.87;;
1525;SDS011;756;49.982;8.240;2022-08-19T08:13:23;10.87;;;9.73;;
1525;SDS011;756;49.982;8.240;2022-08-19T08:15:51;13.23;;;11.50;;
1525;SDS011;756;49.982;8.240;2022-08-19T08:18:21;12.60;;;11.23;;
1525;SDS011;756;49.982;8.240;2022-08-19T08:20:53;12.83;;;11.30;;
1525;SDS011;756;49.982;8.240;2022-08-19T08:23:23;12.37;;;11.07;;
1525;SDS011;756;49.982;8.240;2022-08-19T08:25:56;14.10;;;12.40;;
1525;SDS011;756;49.982;8.240;2022-08-19T08:28:24;12.33;;;11.10;;
1525;SDS011;756;49.982;8.240;2022-08-19T08:30:55;14.10;;;11.63;;
1525;SDS011;756;49.982;8.240;2022-08-19T08:33:23;15.43;;;13.83;;
1525;SDS011;756;49.982;8.240;2022-08-19T08:35:59;16.17;;;14.57;;
1525;SDS011;756;49.982;8.240;2022-08-19T08:38:33;16.27;;;14.57;;
1525;SDS011;756;49.982;8.240;2022-08-19T08:43:53;22.10;;;18.23;;
1525;SDS011;756;49.982;8.240;2022-08-19T08:46:28;17.30;;;15.50;;
1525;SDS011;756;49.982;8.240;2022-08-19T08:49:20;16.10;;;13.10;;
1525;SDS011;756;49.982;8.240;2022-08-19T08:52:04;14.67;;;13.27;;
1525;SDS011;756;49.982;8.240;2022-08-19T08:54:38;14.93;;;13.50;;
1525;SDS011;756;49.982;8.240;2022-08-19T08:57:27;15.73;;;12.47;;
1525;SDS011;756;49.982;8.240;2022-08-19T09:00:07;14.77;;;13.30;;
1525;SDS011;756;49.982;8.240;2022-08-19T09:02:41;11.90;;;10.80;;
1525;SDS011;756;49.982;8.240;2022-08-19T09:05:09;13.47;;;12.07;;
1525;SDS011;756;49.982;8.240;2022-08-19T09:15:56;12.47;;;10.50;;
1525;SDS011;756;49.982;8.240;2022-08-19T09:21:28;11.60;;;10.40;;
1525;SDS011;756;49.982;8.240;2022-08-19T09:23:58;13.03;;;11.77;;
1525;SDS011;756;49.982;8.240;2022-08-19T09:26:25;12.00;;;10.80;;
1525;SDS011;756;49.982;8.240;2022-08-19T09:29:13;10.13;;;9.20;;
1525;SDS011;756;49.982;8.240;2022-08-19T09:31:40;12.07;;;10.80;;
1525;SDS011;756;49.982;8.240;2022-08-19T09:34:07;11.10;;;10.10;;
1525;SDS011;756;49.982;8.240;2022-08-19T09:36:46;12.40;;;11.30;;
1525;SDS011;756;49.982;8.240;2022-08-19T09:39:20;13.80;;;12.60;;
1525;SDS011;756;49.982;8.240;2022-08-19T09:41:46;14.23;;;13.07;;
1525;SDS011;756;49.982;8.240;2022-08-19T09:44:15;15.80;;;14.40;;
1525;SDS011;756;49.982;8.240;2022-08-19T09:46:44;15.43;;;13.83;;
1525;SDS011;756;49.982;8.240;2022-08-19T09:49:13;17.60;;;16.10;;
1525;SDS011;756;49.982;8.240;2022-08-19T09:51:43;16.83;;;15.20;;
1525;SDS011;756;49.982;8.240;2022-08-19T09:54:16;17.20;;;15.80;;
1525;SDS011;756;49.982;8.240;2022-08-19T09:56:50;18.10;;;16.30;;
1525;SDS011;756;49.982;8.240;2022-08-19T09:59:17;15.80;;;14.30;;
1525;SDS011;756;49.982;8.240;2022-08-19T10:01:44;13.50;;;11.67;;
1525;SDS011;756;49.982;8.240;2022-08-19T10:04:11;11.73;;;10.73;;
1525;SDS011;756;49.982;8.240;2022-08-19T10:06:47;13.70;;;12.30;;
1525;SDS011;756;49.982;8.240;2022-08-19T10:09:19;16.13;;;14.43;;
1525;SDS011;756;49.982;8.240;2022-08-19T10:11:59;14.00;;;12.80;;
1525;SDS011;756;49.982;8.240;2022-08-19T10:14:27;11.33;;;10.33;;
1525;SDS011;756;49.982;8.240;2022-08-19T10:16:55;12.47;;;11.13;;
1525;SDS011;756;49.982;8.240;2022-08-19T10:19:24;12.53;;;11.43;;
1525;SDS011;756;49.982;8.240;2022-08-19T10:21:52;12.80;;;11.60;;
1525;SDS011;756;49.982;8.240;2022-08-19T10:24:25;11.30;;;10.37;;
1525;SDS011;756;49.982;8.240;2022-08-19T10:26:53;11.73;;;10.33;;
1525;SDS011;756;49.982;8.240;2022-08-19T10:29:24;10.70;;;9.60;;
1525;SDS011;756;49.982;8.240;2022-08-19T10:31:58;11.07;;;9.90;;
1525;SDS011;756;49.982;8.240;2022-08-19T10:34:29;9.23;;;8.33;;
1525;SDS011;756;49.982;8.240;2022-08-19T10:36:57;8.87;;;8.17;;
1525;SDS011;756;49.982;8.240;2022-08-19T10:39:28;8.17;;;7.47;;
1525;SDS011;756;49.982;8.240;2022-08-19T10:41:56;8.97;;;8.17;;
1525;SDS011;756;49.982;8.240;2022-08-19T10:44:24;8.67;;;7.83;;
1525;SDS011;756;49.982;8.240;2022-08-19T10:46:57;8.57;;;7.70;;
1525;SDS011;756;49.982;8.240;2022-08-19T10:49:25;8.27;;;7.57;;
1525;SDS011;756;49.982;8.240;2022-08-19T10:51:53;8.17;;;7.47;;
1525;SDS011;756;49.982;8.240;2022-08-19T10:54:44;8.07;;;7.30;;
1525;SDS011;756;49.982;8.240;2022-08-19T10:57:33;9.37;;;8.53;;
1525;SDS011;756;49.982;8.240;2022-08-19T11:00:21;8.00;;;7.20;;
1525;SDS011;756;49.982;8.240;2022-08-19T11:02:49;8.60;;;7.83;;
1525;SDS011;756;49.982;8.240;2022-08-19T11:05:16;9.40;;;8.50;;
1525;SDS011;756;49.982;8.240;2022-08-19T11:07:45;8.97;;;8.27;;
1525;SDS011;756;49.982;8.240;2022-08-19T11:10:12;8.20;;;7.50;;
1525;SDS011;756;49.982;8.240;2022-08-19T11:12:46;8.77;;;8.03;;
1525;SDS011;756;49.982;8.240;2022-08-19T11:15:13;9.13;;;8.30;;
1525;SDS011;756;49.982;8.240;2022-08-19T11:17:40;9.20;;;8.40;;
1525;SDS011;756;49.982;8.240;2022-08-19T11:20:07;8.50;;;7.70;;
1525;SDS011;756;49.982;8.240;2022-08-19T11:22:35;9.47;;;8.70;;
1525;SDS011;756;49.982;8.240;2022-08-19T11:25:07;9.30;;;8.43;;
1525;SDS011;756;49.982;8.240;2022-08-19T11:27:40;9.00;;;8.20;;
1525;SDS011;756;49.982;8.240;2022-08-19T11:30:11;8.00;;;7.40;;
1525;SDS011;756;49.982;8.240;2022-08-19T11:32:40;7.03;;;6.53;;
1525;SDS011;756;49.982;8.240;2022-08-19T11:35:14;8.20;;;7.50;;
1525;SDS011;756;49.982;8.240;2022-08-19T11:37:42;7.77;;;7.07;;
1525;SDS011;756;49.982;8.240;2022-08-19T11:40:09;10.30;;;7.97;;
1525;SDS011;756;49.982;8.240;2022-08-19T11:42:36;7.50;;;6.80;;
1525;SDS011;756;49.982;8.240;2022-08-19T11:45:22;9.20;;;8.30;;
1525;SDS011;756;49.982;8.240;2022-08-19T11:47:50;9.53;;;8.73;;
1525;SDS011;756;49.982;8.240;2022-08-19T11:50:17;9.00;;;8.30;;
1525;SDS011;756;49.982;8.240;2022-08-19T11:52:44;9.57;;;8.77;;
1525;SDS011;756;49.982;8.240;2022-08-19T11:55:12;9.83;;;9.03;;
1525;SDS011;756;49.982;8.240;2022-08-19T11:57:40;9.27;;;8.50;;
1525;SDS011;756;49.982;8.240;2022-08-19T12:00:07;9.13;;;8.40;;
1525;SDS011;756;49.982;8.240;2022-08-19T12:02:36;10.30;;;9.40;;
1525;SDS011;756;49.982;8.240;2022-08-19T12:05:03;10.00;;;9.20;;
1525;SDS011;756;49.982;8.240;2022-08-19T12:07:36;9.63;;;8.93;;
1525;SDS011;756;49.982;8.240;2022-08-19T12:10:03;10.17;;;9.37;;
1525;SDS011;756;49.982;8.240;2022-08-19T12:12:30;11.13;;;10.13;;
1525;SDS011;756;49.982;8.240;2022-08-19T12:14:57;9.47;;;8.67;;
1525;SDS011;756;49.982;8.240;2022-08-19T12:17:27;10.00;;;9.10;;
1525;SDS011;756;49.982;8.240;2022-08-19T12:19:54;10.03;;;8.60;;
1525;SDS011;756;49.982;8.240;2022-08-19T12:22:21;9.53;;;8.73;;
1525;SDS011;756;49.982;8.240;2022-08-19T12:24:48;19.20;;;8.70;;
1525;SDS011;756;49.982;8.240;2022-08-19T12:27:17;9.20;;;8.30;;
1525;SDS011;756;49.982;8.240;2022-08-19T12:30:05;9.40;;;8.60;;
1525;SDS011;756;49.982;8.240;2022-08-19T12:32:34;9.83;;;9.03;;
1525;SDS011;756;49.982;8.240;2022-08-19T12:35:00;9.50;;;8.60;;
1525;SDS011;756;49.982;8.240;2022-08-19T12:37:27;9.60;;;8.70;;
1525;SDS011;756;49.982;8.240;2022-08-19T12:39:55;8.50;;;7.90;;
1525;SDS011;756;49.982;8.240;2022-08-19T12:42:22;8.93;;;8.23;;
1525;SDS011;756;49.982;8.240;2022-08-19T12:44:49;8.80;;;8.03;;
1525;SDS011;756;49.982;8.240;2022-08-19T12:47:17;11.30;;;8.33;;
1525;SDS011;756;49.982;8.240;2022-08-19T12:49:44;8.67;;;7.90;;
1525;SDS011;756;49.982;8.240;2022-08-19T12:52:19;8.40;;;7.70;;
1525;SDS011;756;49.982;8.240;2022-08-19T12:54:49;8.47;;;7.77;;
1525;SDS011;756;49.982;8.240;2022-08-19T12:57:20;8.10;;;7.50;;
1525;SDS011;756;49.982;8.240;2022-08-19T13:00:20;8.33;;;7.63;;
1525;SDS011;756;49.982;8.240;2022-08-19T13:02:47;8.40;;;6.70;;
1525;SDS011;756;49.982;8.240;2022-08-19T13:05:17;7.93;;;7.33;;
1525;SDS011;756;49.982;8.240;2022-08-19T13:07:50;7.80;;;7.10;;
1525;SDS011;756;49.982;8.240;2022-08-19T13:10:19;7.83;;;6.97;;
1525;SDS011;756;49.982;8.240;2022-08-19T13:12:48;7.87;;;7.10;;
1525;SDS011;756;49.982;8.240;2022-08-19T13:15:16;7.77;;;7.13;;
1525;SDS011;756;49.982;8.240;2022-08-19T13:17:50;6.70;;;6.20;;
1525;SDS011;756;49.982;8.240;2022-08-19T13:20:19;7.57;;;6.97;;
1525;SDS011;756;49.982;8.240;2022-08-19T13:22:46;7.80;;;7.20;;
1525;SDS011;756;49.982;8.240;2022-08-19T13:25:14;7.80;;;7.20;;
1525;SDS011;756;49.982;8.240;2022-08-19T13:27:43;7.00;;;6.30;;
1525;SDS011;756;49.982;8.240;2022-08-19T13:30:11;7.10;;;6.60;;
1525;SDS011;756;49.982;8.240;2022-08-19T13:32:58;7.17;;;6.57;;
1525;SDS011;756;49.982;8.240;2022-08-19T13:35:42;7.40;;;6.90;;
1525;SDS011;756;49.982;8.240;2022-08-19T13:38:14;6.97;;;6.37;;
1525;SDS011;756;49.982;8.240;2022-08-19T13:40:43;7.50;;;6.80;;
1525;SDS011;756;49.982;8.240;2022-08-19T13:43:10;7.40;;;6.50;;
1525;SDS011;756;49.982;8.240;2022-08-19T13:45:48;6.27;;;5.77;;
1525;SDS011;756;49.982;8.240;2022-08-19T13:48:22;5.60;;;5.10;;
1525;SDS011;756;49.982;8.240;2022-08-19T13:50:49;6.00;;;5.40;;
1525;SDS011;756;49.982;8.240;2022-08-19T13:53:16;6.17;;;5.57;;
1525;SDS011;756;49.982;8.240;2022-08-19T13:55:43;6.33;;;5.83;;
1525;SDS011;756;49.982;8.240;2022-08-19T13:58:10;5.00;;;4.70;;
1525;SDS011;756;49.982;8.240;2022-08-19T14:00:39;5.30;;;4.90;;
1525;SDS011;756;49.982;8.240;2022-08-19T14:03:08;5.73;;;5.30;;
1525;SDS011;756;49.982;8.240;2022-08-19T14:05:35;6.10;;;5.50;;
1525;SDS011;756;49.982;8.240;2022-08-19T14:08:03;6.40;;;5.70;;
1525;SDS011;756;49.982;8.240;2022-08-19T14:10:30;5.40;;;4.90;;
1525;SDS011;756;49.982;8.240;2022-08-19T14:12:58;6.23;;;5.73;;
1525;SDS011;756;49.982;8.240;2022-08-19T14:15:27;6.77;;;6.17;;
1525;SDS011;756;49.982;8.240;2022-08-19T14:17:54;7.25;;;6.75;;
1525;SDS011;756;49.982;8.240;2022-08-19T14:20:21;8.07;;;7.38;;
1525;SDS011;756;49.982;8.240;2022-08-19T14:22:51;7.80;;;7.10;;
1525;SDS011;756;49.982;8.240;2022-08-19T14:25:20;6.40;;;5.90;;
1525;SDS011;756;49.982;8.240;2022-08-19T14:27:50;6.70;;;6.05;;
1525;SDS011;756;49.982;8.240;2022-08-19T14:30:19;8.50;;;7.10;;
1525;SDS011;756;49.982;8.240;2022-08-19T14:32:51;7.47;;;6.70;;
1525;SDS011;756;49.982;8.240;2022-08-19T14:35:18;6.17;;;5.67;;
1525;SDS011;756;49.982;8.240;2022-08-19T14:37:45;6.95;;;6.30;;
1525;SDS011;756;49.982;8.240;2022-08-19T14:40:13;6.20;;;5.73;;
1525;SDS011;756;49.982;8.240;2022-08-19T14:42:42;6.90;;;6.40;;
1525;SDS011;756;49.982;8.240;2022-08-19T14:45:10;7.13;;;6.45;;
1525;SDS011;756;49.982;8.240;2022-08-19T14:47:37;7.90;;;7.30;;
1525;SDS011;756;49.982;8.240;2022-08-19T14:50:06;7.40;;;6.80;;
1525;SDS011;756;49.982;8.240;2022-08-19T14:52:42;7.50;;;6.80;;
1525;SDS011;756;49.982;8.240;2022-08-19T14:55:09;7.07;;;6.47;;
1525;SDS011;756;49.982;8.240;2022-08-19T14:57:36;7.43;;;6.83;;
1525;SDS011;756;49.982;8.240;2022-08-19T15:00:03;7.30;;;6.70;;
1525;SDS011;756;49.982;8.240;2022-08-19T15:02:30;6.80;;;6.20;;
1525;SDS011;756;49.982;8.240;2022-08-19T15:05:00;5.80;;;5.40;;
1525;SDS011;756;49.982;8.240;2022-08-19T15:07:28;6.75;;;6.25;;
1525;SDS011;756;49.982;8.240;2022-08-19T15:09:55;6.27;;;5.77;;
1525;SDS011;756;49.982;8.240;2022-08-19T15:12:22;7.20;;;6.60;;
1525;SDS011;756;49.982;8.240;2022-08-19T15:14:50;7.60;;;6.30;;
1525;SDS011;756;49.982;8.240;2022-08-19T15:17:21;6.53;;;5.90;;
1525;SDS011;756;49.982;8.240;2022-08-19T15:20:08;6.90;;;6.33;;
1525;SDS011;756;49.982;8.240;2022-08-19T15:22:38;6.60;;;6.00;;
1525;SDS011;756;49.982;8.240;2022-08-19T15:25:07;6.60;;;6.10;;
1525;SDS011;756;49.982;8.240;2022-08-19T15:27:37;7.10;;;5.73;;
1525;SDS011;756;49.982;8.240;2022-08-19T15:30:06;6.40;;;5.80;;
1525;SDS011;756;49.982;8.240;2022-08-19T15:32:34;7.23;;;6.53;;
1525;SDS011;756;49.982;8.240;2022-08-19T15:35:02;6.90;;;6.40;;
1525;SDS011;756;49.982;8.240;2022-08-19T15:37:30;7.50;;;6.47;;
1525;SDS011;756;49.982;8.240;2022-08-19T15:40:02;7.53;;;6.83;;
1525;SDS011;756;49.982;8.240;2022-08-19T15:42:30;7.63;;;6.67;;
1525;SDS011;756;49.982;8.240;2022-08-19T15:44:57;7.43;;;6.77;;
1525;SDS011;756;49.982;8.240;2022-08-19T15:47:30;6.20;;;5.60;;
1525;SDS011;756;49.982;8.240;2022-08-19T15:50:19;7.03;;;6.43;;